Time;durP1;ratioP1;P1;durP2;ratioP2;P2;SDS_P1;SDS_P2;PMS_P1;PMS_P2;Temp;Humidity;BMP_temperature;BMP_pressure;BME280_temperature;BME280_humidity;BME280_pressure;Samples;Min_cycle;Max_cycle;Signal;HPM_P1;HPM_P2
2023/04/15 00:00:09;;;;;;;7.20;6.50;;;6.50;99.90;;;;;;5047421;28;20194;-75
2023/04/15 00:02:36;;;;;;;6.57;6.07;;;6.50;99.90;;;;;;5049589;28;20183;-74
2023/04/15 00:05:01;;;;;;;6.63;6.03;;;6.40;99.90;;;;;;5045649;28;20228;-74
2023/04/15 00:07:28;;;;;;;6.95;6.35;;;6.40;99.90;;;;;;5050506;28;20215;-74
2023/04/15 00:09:56;;;;;;;6.75;6.15;;;6.40;99.90;;;;;;5052235;28;20275;-74
2023/04/15 00:12:22;;;;;;;6.80;6.20;;;6.40;99.90;;;;;;5051860;28;20184;-74
2023/04/15 00:14:48;;;;;;;7.03;6.43;;;6.40;99.90;;;;;;5044468;28;20221;-74
2023/04/15 00:17:14;;;;;;;6.97;6.20;;;6.50;99.90;;;;;;5046300;28;20173;-74
2023/04/15 00:19:40;;;;;;;7.65;6.60;;;6.50;99.90;;;;;;5036623;28;20226;-74
2023/04/15 00:22:07;;;;;;;7.00;6.45;;;6.50;99.90;;;;;;5030126;28;20184;-75
2023/04/15 00:24:32;;;;;;;7.25;6.65;;;6.40;99.90;;;;;;5050163;28;20238;-75
2023/04/15 00:26:58;;;;;;;7.28;6.68;;;6.50;99.90;;;;;;5044919;28;20212;-75
2023/04/15 00:29:24;;;;;;;7.80;7.10;;;6.50;99.90;;;;;;5050868;28;20263;-75
2023/04/15 00:31:50;;;;;;;6.90;6.32;;;6.50;99.90;;;;;;5044661;28;20184;-74
2023/04/15 00:34:16;;;;;;;6.47;5.93;;;6.50;99.90;;;;;;5049006;28;20217;-74
2023/04/15 00:36:42;;;;;;;6.78;6.28;;;6.50;99.90;;;;;;5048210;28;20192;-74
2023/04/15 00:39:07;;;;;;;6.90;6.22;;;6.60;99.90;;;;;;5043800;28;20179;-75
2023/04/15 00:41:33;;;;;;;7.10;6.50;;;6.60;99.90;;;;;;5048838;28;20176;-74
2023/04/15 00:44:01;;;;;;;6.57;6.07;;;6.60;99.90;;;;;;5039652;28;20204;-74
2023/04/15 00:46:28;;;;;;;6.28;5.78;;;6.60;99.90;;;;;;5051768;28;20184;-73
2023/04/15 00:48:54;;;;;;;5.78;5.38;;;6.60;99.90;;;;;;5043183;28;20702;-74
2023/04/15 00:51:20;;;;;;;6.03;5.53;;;6.60;99.90;;;;;;5047516;28;20176;-73
2023/04/15 00:53:45;;;;;;;5.85;5.35;;;6.60;99.90;;;;;;5042779;28;20215;-74
2023/04/15 00:56:11;;;;;;;6.57;6.07;;;6.60;99.90;;;;;;5052855;28;20169;-74
2023/04/15 00:58:36;;;;;;;5.65;5.25;;;6.60;99.90;;;;;;5038743;28;21745;-74
2023/04/15 01:01:03;;;;;;;6.05;5.55;;;6.60;99.90;;;;;;5044061;28;20536;-74
2023/04/15 01:03:29;;;;;;;5.97;5.47;;;6.60;99.90;;;;;;5045748;28;20279;-74
2023/04/15 01:05:57;;;;;;;5.25;4.80;;;6.60;99.90;;;;;;5049800;28;20606;-74
2023/04/15 01:08:29;;;;;;;5.03;4.63;;;6.60;99.90;;;;;;5046813;28;20555;-74
2023/04/15 01:10:57;;;;;;;6.05;5.65;;;6.60;99.90;;;;;;5046651;28;20710;-74
2023/04/15 01:13:23;;;;;;;5.28;4.88;;;6.70;99.90;;;;;;5047889;28;20192;-74
2023/04/15 01:15:50;;;;;;;5.38;4.40;;;6.70;99.90;;;;;;5040156;28;20216;-74
2023/04/15 01:18:16;;;;;;;6.00;5.50;;;6.80;99.90;;;;;;5048781;28;20184;-74
2023/04/15 01:20:42;;;;;;;5.88;5.38;;;6.80;99.90;;;;;;5040981;28;20186;-74
2023/04/15 01:23:08;;;;;;;5.38;4.72;;;6.80;99.90;;;;;;5035735;28;20203;-74
2023/04/15 01:25:34;;;;;;;6.20;5.30;;;6.80;99.90;;;;;;5039845;28;20208;-74
2023/04/15 01:28:01;;;;;;;5.80;5.13;;;6.90;99.90;;;;;;5050231;28;20241;-74
2023/04/15 01:30:26;;;;;;;5.70;5.25;;;6.90;99.90;;;;;;5039048;28;20207;-74
2023/04/15 01:32:52;;;;;;;5.35;4.95;;;6.90;99.90;;;;;;5042897;28;20207;-74
2023/04/15 01:35:18;;;;;;;6.03;5.47;;;6.90;99.90;;;;;;5041893;28;20216;-75
2023/04/15 01:37:45;;;;;;;6.15;5.63;;;6.90;99.90;;;;;;5044856;28;20180;-74
2023/04/15 01:40:10;;;;;;;5.85;5.35;;;6.90;99.90;;;;;;5044799;28;20175;-74
2023/04/15 01:42:37;;;;;;;5.65;5.25;;;6.90;99.90;;;;;;5050936;28;20191;-74
2023/04/15 01:45:03;;;;;;;6.53;6.03;;;6.90;99.90;;;;;;5042189;28;20200;-74
2023/04/15 01:47:29;;;;;;;6.85;6.25;;;6.90;99.90;;;;;;5044232;28;20202;-75
2023/04/15 01:49:55;;;;;;;5.80;5.40;;;6.90;99.90;;;;;;5042142;28;20176;-74
2023/04/15 01:52:20;;;;;;;5.90;5.50;;;6.90;99.90;;;;;;5034036;28;20603;-74
2023/04/15 01:54:46;;;;;;;6.35;5.85;;;6.90;99.90;;;;;;5049906;28;20243;-74
2023/04/15 01:57:12;;;;;;;5.57;5.18;;;6.90;99.90;;;;;;5041059;28;20183;-74
2023/04/15 01:59:37;;;;;;;6.40;5.85;;;6.90;99.90;;;;;;5041216;28;20203;-74
2023/04/15 02:02:04;;;;;;;6.60;5.88;;;6.90;99.90;;;;;;5041574;28;20191;-74
2023/04/15 02:04:30;;;;;;;6.25;5.65;;;6.90;99.90;;;;;;5045718;28;20566;-74
2023/04/15 02:06:56;;;;;;;6.07;5.57;;;6.90;99.90;;;;;;5040092;28;20551;-74
2023/04/15 02:09:21;;;;;;;6.03;5.63;;;6.90;99.90;;;;;;5049560;28;20172;-75
2023/04/15 02:11:47;;;;;;;6.45;5.95;;;6.90;99.90;;;;;;5046115;28;20581;-75
2023/04/15 02:14:13;;;;;;;5.95;5.45;;;6.90;99.90;;;;;;5026440;28;20204;-76
2023/04/15 02:16:39;;;;;;;6.75;6.25;;;6.90;99.90;;;;;;5043940;28;20172;-75
2023/04/15 02:19:04;;;;;;;6.18;5.68;;;7.00;99.90;;;;;;5043496;28;20172;-75
2023/04/15 02:21:30;;;;;;;6.15;5.72;;;7.00;99.90;;;;;;5040312;28;20562;-74
2023/04/15 02:23:56;;;;;;;6.68;6.07;;;7.00;99.90;;;;;;5047429;28;20214;-74
2023/04/15 02:26:21;;;;;;;6.60;6.10;;;7.00;99.90;;;;;;5039593;28;20554;-75
2023/04/15 02:28:50;;;;;;;6.03;5.53;;;6.90;99.90;;;;;;5042223;28;20652;-74
2023/04/15 02:31:16;;;;;;;5.70;5.30;;;6.90;99.90;;;;;;5043666;28;20274;-75
2023/04/15 02:33:41;;;;;;;6.30;5.80;;;6.90;99.90;;;;;;5043646;28;20627;-75
2023/04/15 02:36:08;;;;;;;5.75;5.25;;;6.90;99.90;;;;;;5044670;28;20285;-74
2023/04/15 02:38:34;;;;;;;6.10;5.60;;;6.90;99.90;;;;;;5023784;28;20176;-74
2023/04/15 02:41:00;;;;;;;6.53;6.03;;;6.80;99.90;;;;;;5042216;28;20234;-74
2023/04/15 02:43:26;;;;;;;6.32;5.82;;;6.80;99.90;;;;;;5053142;28;20178;-75
2023/04/15 02:45:52;;;;;;;7.15;6.55;;;6.70;99.90;;;;;;5053204;28;20198;-74
2023/04/15 02:48:19;;;;;;;6.50;6.00;;;6.50;99.90;;;;;;5047421;28;20214;-74
2023/04/15 02:50:45;;;;;;;7.20;6.53;;;6.40;99.90;;;;;;5042363;28;20234;-74
2023/04/15 02:53:12;;;;;;;7.65;7.05;;;6.30;99.90;;;;;;5047462;28;20651;-74
2023/04/15 02:55:37;;;;;;;7.43;6.90;;;6.30;99.90;;;;;;5054131;28;20246;-74
2023/04/15 02:58:03;;;;;;;7.88;7.20;;;6.20;99.90;;;;;;5034871;28;20180;-74
2023/04/15 03:00:29;;;;;;;9.13;8.20;;;6.20;99.90;;;;;;5051293;28;20655;-73
2023/04/15 03:03:04;;;;;;;9.05;8.23;;;6.20;99.90;;;;;;5045654;28;20656;-74
2023/04/15 03:05:30;;;;;;;8.98;8.00;;;6.10;99.90;;;;;;5044653;28;20272;-75
2023/04/15 03:07:56;;;;;;;9.40;8.00;;;6.10;99.90;;;;;;5048633;28;20184;-75
2023/04/15 03:10:21;;;;;;;9.60;8.27;;;6.10;99.90;;;;;;5019787;28;20181;-75
2023/04/15 03:12:48;;;;;;;8.23;7.40;;;6.00;99.90;;;;;;5030504;28;20190;-75
2023/04/15 03:15:13;;;;;;;9.35;8.45;;;6.00;99.90;;;;;;5054447;28;20220;-74
2023/04/15 03:17:39;;;;;;;9.48;8.55;;;6.00;99.90;;;;;;5051194;28;20195;-74
2023/04/15 03:20:05;;;;;;;10.90;9.68;;;5.90;99.90;;;;;;5049679;28;20199;-74
2023/04/15 03:22:32;;;;;;;10.10;9.13;;;6.00;99.90;;;;;;5050773;28;20188;-74
2023/04/15 03:24:57;;;;;;;11.70;9.25;;;5.90;99.90;;;;;;5054754;28;20211;-74
2023/04/15 03:27:24;;;;;;;9.88;8.98;;;6.00;99.90;;;;;;5045844;28;20266;-74
2023/04/15 03:29:49;;;;;;;10.02;9.02;;;5.90;99.90;;;;;;5051357;28;20192;-75
2023/04/15 03:32:15;;;;;;;10.38;9.38;;;5.90;99.90;;;;;;5051641;28;20678;-75
2023/04/15 03:34:41;;;;;;;9.65;8.70;;;5.90;99.90;;;;;;5053558;28;20212;-75
2023/04/15 03:37:07;;;;;;;10.25;9.35;;;5.90;99.90;;;;;;5059927;28;20168;-75
2023/04/15 03:39:33;;;;;;;10.15;9.20;;;5.90;99.90;;;;;;5048475;28;20250;-74
2023/04/15 03:41:58;;;;;;;9.93;8.95;;;5.90;99.90;;;;;;5053960;28;20662;-74
2023/04/15 03:44:26;;;;;;;12.02;9.45;;;5.90;99.90;;;;;;5055814;28;20212;-74
2023/04/15 03:46:51;;;;;;;11.88;10.57;;;5.90;99.90;;;;;;5051323;28;20790;-74
2023/04/15 03:49:18;;;;;;;29.05;11.77;;;5.90;99.90;;;;;;5049142;28;20282;-74
2023/04/15 03:51:44;;;;;;;11.00;9.77;;;5.90;99.90;;;;;;5053115;28;20182;-74
2023/04/15 03:54:10;;;;;;;36.70;12.23;;;5.90;99.90;;;;;;5049288;28;20572;-74
2023/04/15 03:56:36;;;;;;;10.88;9.88;;;5.80;99.90;;;;;;5056250;28;20244;-74
2023/04/15 03:59:01;;;;;;;12.82;11.20;;;5.90;99.90;;;;;;5046338;28;20650;-74
2023/04/15 04:01:27;;;;;;;14.40;11.45;;;5.90;99.90;;;;;;5051639;28;20199;-75
2023/04/15 04:03:52;;;;;;;17.27;13.23;;;5.90;99.90;;;;;;5047326;28;20209;-74
2023/04/15 04:06:18;;;;;;;14.52;13.02;;;5.80;99.90;;;;;;5047736;28;20216;-75
2023/04/15 04:08:44;;;;;;;21.33;14.77;;;5.80;99.90;;;;;;5046478;28;20276;-74
2023/04/15 04:11:09;;;;;;;16.00;13.57;;;5.70;99.90;;;;;;5056461;28;20172;-74
2023/04/15 04:13:35;;;;;;;18.33;14.68;;;5.70;99.90;;;;;;5043680;28;20534;-74
2023/04/15 04:16:01;;;;;;;18.58;15.65;;;5.70;99.90;;;;;;5056617;28;20686;-74
2023/04/15 04:18:27;;;;;;;16.58;14.88;;;5.70;99.90;;;;;;5050261;28;20251;-74
2023/04/15 04:20:52;;;;;;;22.17;15.45;;;5.70;99.90;;;;;;5048072;28;20505;-75
2023/04/15 04:23:18;;;;;;;17.73;15.73;;;5.70;99.90;;;;;;5047415;28;20188;-74
2023/04/15 04:25:44;;;;;;;18.10;15.80;;;5.70;99.90;;;;;;5055808;28;20298;-74
2023/04/15 04:28:10;;;;;;;18.08;14.82;;;5.60;99.90;;;;;;5053313;28;20178;-74
2023/04/15 04:30:36;;;;;;;24.95;15.10;;;5.60;99.90;;;;;;5029093;28;20663;-74
2023/04/15 04:33:02;;;;;;;18.27;13.82;;;5.60;99.90;;;;;;5046032;28;20173;-74
2023/04/15 04:35:28;;;;;;;17.80;14.35;;;5.60;99.90;;;;;;5051225;28;20270;-74
2023/04/15 04:37:53;;;;;;;16.10;14.40;;;5.60;99.90;;;;;;5041861;28;20179;-74
2023/04/15 04:40:19;;;;;;;17.40;14.45;;;5.60;99.90;;;;;;5050476;28;20168;-74
2023/04/15 04:42:45;;;;;;;16.85;14.48;;;5.50;99.90;;;;;;5053321;28;20180;-74
2023/04/15 04:45:10;;;;;;;18.70;14.68;;;5.50;99.90;;;;;;5050611;28;20286;-75
2023/04/15 04:47:36;;;;;;;27.85;16.38;;;5.50;99.90;;;;;;5039799;28;20223;-75
2023/04/15 04:50:02;;;;;;;16.63;14.75;;;5.50;99.90;;;;;;5049610;28;20224;-74
2023/04/15 04:52:27;;;;;;;17.13;14.60;;;5.50;99.90;;;;;;5052644;28;20179;-74
2023/04/15 04:54:53;;;;;;;18.38;15.68;;;5.50;99.90;;;;;;5049893;28;20223;-74
2023/04/15 04:57:19;;;;;;;19.83;15.48;;;5.50;99.90;;;;;;5051856;28;20176;-74
2023/04/15 04:59:44;;;;;;;18.75;15.63;;;5.50;99.90;;;;;;5050205;28;20267;-75
2023/04/15 05:02:10;;;;;;;17.23;15.25;;;5.50;99.90;;;;;;5046144;28;20311;-75
2023/04/15 05:04:35;;;;;;;17.15;14.32;;;5.50;99.90;;;;;;5050270;28;20195;-75
2023/04/15 05:07:01;;;;;;;19.38;14.75;;;5.50;99.90;;;;;;5046201;28;20207;-75
2023/04/15 05:09:27;;;;;;;20.83;13.75;;;5.50;99.90;;;;;;5047325;28;20642;-75
2023/04/15 05:11:53;;;;;;;16.73;14.52;;;5.50;99.90;;;;;;5047074;28;20188;-75
2023/04/15 05:14:18;;;;;;;16.42;14.63;;;5.50;99.90;;;;;;5049581;28;20203;-75
2023/04/15 05:16:44;;;;;;;16.65;14.88;;;5.50;99.90;;;;;;5045538;28;20188;-74
2023/04/15 05:19:09;;;;;;;16.98;15.13;;;5.60;99.90;;;;;;5041918;28;20635;-74
2023/04/15 05:21:35;;;;;;;17.20;14.32;;;5.60;99.90;;;;;;5040221;28;20627;-74
2023/04/15 05:24:01;;;;;;;18.80;13.65;;;5.50;99.90;;;;;;5039692;28;20211;-74
2023/04/15 05:26:27;;;;;;;17.35;14.02;;;5.50;99.90;;;;;;5042758;28;20616;-76
2023/04/15 05:28:53;;;;;;;18.35;14.30;;;5.60;99.90;;;;;;5044979;28;20180;-75
2023/04/15 05:31:18;;;;;;;17.42;15.18;;;5.50;99.90;;;;;;5047322;28;20617;-75
2023/04/15 05:33:44;;;;;;;15.45;13.90;;;5.60;99.90;;;;;;5039365;28;20187;-75
2023/04/15 05:36:10;;;;;;;15.05;13.55;;;5.60;99.90;;;;;;5043147;28;20579;-74
2023/04/15 05:38:36;;;;;;;17.05;14.13;;;5.70;99.90;;;;;;5040597;28;20191;-75
2023/04/15 05:41:02;;;;;;;14.90;12.95;;;5.80;99.90;;;;;;5043166;28;20180;-75
2023/04/15 05:43:27;;;;;;;13.40;12.00;;;6.00;99.90;;;;;;5048003;28;20180;-76
2023/04/15 05:45:53;;;;;;;14.27;12.68;;;6.00;99.90;;;;;;5040661;28;20196;-75
2023/04/15 05:48:19;;;;;;;12.32;11.13;;;6.10;99.90;;;;;;5046003;28;20197;-74
2023/04/15 05:50:44;;;;;;;11.70;10.27;;;5.90;99.90;;;;;;5043137;28;20237;-74
2023/04/15 05:53:10;;;;;;;10.85;9.82;;;5.80;99.90;;;;;;5047566;28;20796;-76
2023/04/15 05:55:36;;;;;;;12.02;10.73;;;5.70;99.90;;;;;;5043771;28;20651;-75
2023/04/15 05:58:02;;;;;;;10.20;9.15;;;5.70;99.90;;;;;;5044849;28;20190;-75
2023/04/15 06:00:28;;;;;;;10.27;9.32;;;5.70;99.90;;;;;;5048547;28;20267;-75
2023/04/15 06:02:55;;;;;;;10.82;9.77;;;5.70;99.90;;;;;;5040588;28;20301;-75
2023/04/15 06:05:21;;;;;;;11.18;10.07;;;5.60;99.90;;;;;;5049294;28;20200;-74
2023/04/15 06:07:46;;;;;;;9.52;8.68;;;5.70;99.90;;;;;;5041213;28;20182;-76
2023/04/15 06:10:12;;;;;;;10.77;8.98;;;5.60;99.90;;;;;;5045943;28;20188;-75
2023/04/15 06:12:37;;;;;;;10.25;9.27;;;5.70;99.90;;;;;;5037205;28;20215;-75
2023/04/15 06:15:05;;;;;;;9.85;8.85;;;5.70;99.90;;;;;;5044649;28;20211;-75
2023/04/15 06:17:31;;;;;;;9.68;8.73;;;5.80;99.90;;;;;;5044798;28;20204;-75
2023/04/15 06:19:56;;;;;;;9.25;8.45;;;5.80;99.90;;;;;;5050506;28;20214;-75
2023/04/15 06:22:22;;;;;;;10.07;8.93;;;5.80;99.90;;;;;;5047417;28;20207;-75
2023/04/15 06:24:51;;;;;;;9.02;7.10;;;5.80;99.90;;;;;;5048988;28;20691;-75
2023/04/15 06:27:17;;;;;;;8.48;7.53;;;5.70;99.90;;;;;;5050059;28;20237;-75
2023/04/15 06:29:43;;;;;;;7.38;6.75;;;5.80;99.90;;;;;;5045031;28;20608;-75
2023/04/15 06:32:09;;;;;;;7.43;6.82;;;5.70;99.90;;;;;;5048513;28;20190;-75
2023/04/15 06:34:35;;;;;;;8.35;7.65;;;5.70;99.90;;;;;;5051024;28;20230;-75
2023/04/15 06:37:00;;;;;;;8.27;7.47;;;5.70;99.90;;;;;;5048301;28;20639;-75
2023/04/15 06:39:26;;;;;;;7.70;7.07;;;5.70;99.90;;;;;;5028303;28;20261;-75
2023/04/15 06:41:52;;;;;;;9.10;8.20;;;5.70;99.90;;;;;;5043460;28;20179;-75
2023/04/15 06:44:18;;;;;;;7.00;6.40;;;5.80;99.90;;;;;;5048073;28;20205;-75
2023/04/15 06:46:43;;;;;;;7.72;7.07;;;5.90;99.90;;;;;;5045398;28;20656;-75
2023/04/15 06:49:10;;;;;;;10.93;7.32;;;5.90;99.90;;;;;;5055006;28;20184;-76
2023/04/15 06:51:36;;;;;;;7.25;6.60;;;5.90;99.90;;;;;;5048786;28;20197;-75
2023/04/15 06:54:04;;;;;;;6.78;6.18;;;5.90;99.90;;;;;;5045304;28;20635;-75
2023/04/15 06:56:33;;;;;;;7.28;6.65;;;6.00;99.90;;;;;;5034744;28;20179;-75
2023/04/15 06:58:58;;;;;;;7.75;7.00;;;5.90;99.90;;;;;;5049726;28;20241;-76
2023/04/15 07:01:24;;;;;;;6.43;5.90;;;5.90;99.90;;;;;;5050016;28;20187;-74
2023/04/15 07:03:50;;;;;;;7.82;6.93;;;5.90;99.90;;;;;;5043770;28;20209;-74
2023/04/15 07:06:16;;;;;;;7.88;6.45;;;6.00;99.90;;;;;;5048051;28;20204;-73
2023/04/15 07:08:41;;;;;;;6.95;6.30;;;6.00;99.90;;;;;;5040650;28;20636;-74
2023/04/15 07:11:07;;;;;;;7.28;6.63;;;6.10;99.90;;;;;;5044483;28;20202;-73
2023/04/15 07:13:33;;;;;;;7.45;6.78;;;6.20;99.90;;;;;;5044451;28;20210;-73
2023/04/15 07:15:59;;;;;;;6.45;5.95;;;6.10;99.90;;;;;;5040613;28;20849;-75
2023/04/15 07:18:24;;;;;;;5.57;5.13;;;6.20;99.90;;;;;;5044703;28;20191;-75
2023/04/15 07:20:50;;;;;;;5.63;5.22;;;6.20;99.90;;;;;;5043178;28;20722;-75
2023/04/15 07:23:16;;;;;;;6.75;5.55;;;6.30;99.90;;;;;;5049150;28;20180;-75
2023/04/15 07:25:41;;;;;;;5.50;5.10;;;6.30;99.90;;;;;;5031277;28;20964;-76
2023/04/15 07:28:07;;;;;;;5.57;5.10;;;6.30;99.90;;;;;;5043597;28;20650;-76
2023/04/15 07:30:33;;;;;;;5.40;5.00;;;6.20;99.90;;;;;;5050547;28;20188;-75
2023/04/15 07:32:59;;;;;;;5.43;5.03;;;6.30;99.90;;;;;;5048824;28;20195;-75
2023/04/15 07:35:25;;;;;;;4.70;4.32;;;6.30;99.90;;;;;;5042329;28;20215;-76
2023/04/15 07:37:51;;;;;;;5.72;4.80;;;6.30;99.90;;;;;;5048940;28;20258;-74
2023/04/15 07:40:17;;;;;;;5.80;4.88;;;6.20;99.90;;;;;;5047211;28;20210;-74
2023/04/15 07:42:42;;;;;;;5.78;5.28;;;6.10;99.90;;;;;;5049283;28;20184;-74
2023/04/15 07:45:08;;;;;;;4.93;4.55;;;6.10;99.90;;;;;;5044318;28;20204;-74
2023/04/15 07:47:34;;;;;;;5.00;4.63;;;6.10;99.90;;;;;;5045001;28;20188;-74
2023/04/15 07:50:01;;;;;;;5.55;5.13;;;6.10;99.90;;;;;;5044736;28;20188;-74
2023/04/15 07:52:27;;;;;;;5.65;5.05;;;6.10;99.90;;;;;;5047738;28;20183;-75
2023/04/15 07:54:52;;;;;;;5.53;5.13;;;6.10;99.90;;;;;;5045079;28;20645;-75
2023/04/15 07:57:18;;;;;;;5.68;5.28;;;6.20;99.90;;;;;;5046458;28;20275;-75
2023/04/15 07:59:44;;;;;;;5.63;5.22;;;6.30;99.90;;;;;;5046913;28;20647;-75
2023/04/15 08:02:10;;;;;;;4.80;4.43;;;6.30;99.90;;;;;;5025298;28;20279;-75
2023/04/15 08:04:36;;;;;;;4.85;4.55;;;6.30;99.90;;;;;;5054041;28;20214;-75
2023/04/15 08:07:03;;;;;;;5.25;4.80;;;6.20;99.90;;;;;;5048435;28;20192;-75
2023/04/15 08:09:29;;;;;;;5.40;4.90;;;6.30;99.90;;;;;;5050612;28;20183;-75
2023/04/15 08:11:55;;;;;;;12.07;5.35;;;6.30;99.90;;;;;;5048198;28;20271;-75
2023/04/15 08:14:21;;;;;;;5.18;4.78;;;6.30;99.90;;;;;;5046188;28;20214;-76
2023/04/15 08:16:47;;;;;;;5.53;5.13;;;6.30;99.90;;;;;;5041812;28;20180;-75
2023/04/15 08:19:12;;;;;;;5.00;4.68;;;6.40;99.90;;;;;;5043861;28;20179;-76
2023/04/15 08:21:39;;;;;;;5.20;4.90;;;6.40;99.90;;;;;;5033166;28;20191;-74
2023/04/15 08:24:05;;;;;;;5.13;4.63;;;6.50;99.90;;;;;;5041142;28;20196;-73
2023/04/15 08:26:31;;;;;;;5.38;4.88;;;6.50;99.90;;;;;;5043626;28;20580;-73
2023/04/15 08:28:57;;;;;;;5.10;4.60;;;6.50;99.90;;;;;;5031692;28;20176;-72
2023/04/15 08:31:25;;;;;;;4.78;4.38;;;6.60;99.90;;;;;;5052806;28;20183;-73
2023/04/15 08:33:52;;;;;;;4.63;4.32;;;6.60;99.90;;;;;;5045746;28;20624;-73
2023/04/15 08:36:18;;;;;;;4.38;4.05;;;6.60;99.90;;;;;;5044851;28;20183;-74
2023/04/15 08:38:44;;;;;;;4.57;4.28;;;6.60;99.90;;;;;;5046856;28;20204;-74
2023/04/15 08:41:53;;;;;;;4.20;3.90;;;6.70;99.90;;;;;;5040794;28;20212;-74
2023/04/15 08:44:19;;;;;;;4.38;4.07;;;6.70;99.90;;;;;;5006268;28;20203;-74
2023/04/15 08:46:46;;;;;;;3.78;3.47;;;6.70;99.90;;;;;;5053279;28;20179;-73
2023/04/15 08:49:12;;;;;;;3.83;3.63;;;6.80;99.90;;;;;;5053752;28;20177;-74
2023/04/15 08:51:39;;;;;;;3.85;3.60;;;7.00;99.90;;;;;;5048309;28;20192;-73
2023/04/15 08:54:07;;;;;;;3.58;3.38;;;6.80;99.90;;;;;;5049875;28;20208;-74
2023/04/15 08:56:34;;;;;;;3.33;3.08;;;6.80;99.90;;;;;;5054983;28;20228;-74
2023/04/15 08:59:00;;;;;;;3.83;3.53;;;6.80;99.90;;;;;;5049858;28;20179;-73
2023/04/15 09:01:26;;;;;;;3.13;2.92;;;6.80;99.90;;;;;;5057304;28;20186;-74
2023/04/15 09:03:55;;;;;;;3.78;3.55;;;6.70;99.90;;;;;;5056117;28;20203;-73
2023/04/15 09:06:24;;;;;;;3.40;3.20;;;6.70;99.90;;;;;;5048683;28;20188;-74
2023/04/15 09:08:50;;;;;;;3.13;2.92;;;6.60;99.90;;;;;;5038316;28;20203;-74
2023/04/15 09:11:16;;;;;;;4.60;3.00;;;6.50;99.90;;;;;;5033965;28;20405;-74
2023/04/15 09:13:42;;;;;;;3.17;2.97;;;6.50;99.90;;;;;;5046061;28;20287;-74
2023/04/15 09:16:08;;;;;;;3.22;3.03;;;6.50;99.90;;;;;;5029757;28;20709;-74
2023/04/15 09:18:36;;;;;;;3.15;2.95;;;6.60;99.90;;;;;;5039679;28;20192;-74
2023/04/15 09:21:16;;;;;;;3.38;3.17;;;6.60;99.90;;;;;;5045328;28;20545;-74
2023/04/15 09:23:56;;;;;;;3.25;3.05;;;6.70;99.90;;;;;;5041132;28;20180;-74
2023/04/15 09:26:31;;;;;;;3.25;3.05;;;6.70;99.90;;;;;;5048574;28;20270;-74
2023/04/15 09:29:05;;;;;;;3.28;3.08;;;6.90;99.90;;;;;;5042325;28;20624;-74
2023/04/15 09:31:31;;;;;;;3.35;3.05;;;7.00;99.90;;;;;;5040821;28;20179;-73
2023/04/15 09:33:56;;;;;;;3.03;2.83;;;7.00;99.90;;;;;;5051581;28;20198;-74
2023/04/15 09:36:23;;;;;;;2.70;2.50;;;6.90;99.90;;;;;;5045472;28;20253;-75
2023/04/15 09:38:56;;;;;;;2.80;2.67;;;7.00;99.90;;;;;;5026657;28;20185;-74
2023/04/15 09:41:23;;;;;;;3.08;2.90;;;6.90;99.90;;;;;;5047148;28;20825;-75
2023/04/15 09:43:49;;;;;;;2.45;2.33;;;7.00;99.90;;;;;;5045073;28;20607;-73
2023/04/15 09:46:15;;;;;;;3.50;3.20;;;7.00;99.90;;;;;;5048955;28;20187;-73
2023/04/15 09:48:40;;;;;;;3.10;2.90;;;7.10;99.90;;;;;;5043675;28;20182;-73
2023/04/15 09:51:06;;;;;;;2.15;2.05;;;7.20;99.90;;;;;;5046167;28;20191;-73
2023/04/15 09:53:34;;;;;;;7.18;2.70;;;7.20;99.90;;;;;;5051171;28;20183;-73
2023/04/15 09:56:01;;;;;;;2.10;2.00;;;7.10;99.90;;;;;;5043987;28;20231;-73
2023/04/15 09:58:32;;;;;;;2.85;2.55;;;7.00;99.90;;;;;;5043637;28;20595;-73
2023/04/15 10:01:00;;;;;;;2.55;2.45;;;6.90;99.90;;;;;;5046521;28;20180;-73
2023/04/15 10:03:31;;;;;;;2.47;2.28;;;6.90;99.90;;;;;;5043948;28;20723;-74
2023/04/15 10:05:59;;;;;;;2.20;2.10;;;7.00;99.90;;;;;;5045783;28;20191;-74
2023/04/15 10:08:29;;;;;;;2.13;2.03;;;7.10;99.90;;;;;;5046884;28;20655;-74
2023/04/15 10:10:55;;;;;;;2.38;2.28;;;7.20;99.90;;;;;;5038986;28;20640;-74
2023/04/15 10:13:24;;;;;;;2.25;2.15;;;7.30;99.90;;;;;;5044957;28;20194;-75
2023/04/15 10:15:58;;;;;;;2.60;2.40;;;7.40;99.90;;;;;;5027806;28;20215;-74
2023/04/15 10:18:25;;;;;;;3.50;2.42;;;7.50;99.90;;;;;;5047542;28;20632;-74
2023/04/15 10:20:52;;;;;;;2.28;2.17;;;7.80;99.90;;;;;;5041034;28;20188;-74
2023/04/15 10:23:19;;;;;;;2.25;2.15;;;7.80;99.90;;;;;;5047212;28;20183;-74
2023/04/15 10:25:46;;;;;;;2.22;2.10;;;7.80;99.90;;;;;;5044029;28;20202;-74
2023/04/15 10:28:12;;;;;;;2.80;2.60;;;7.90;99.90;;;;;;5045691;28;20173;-74
2023/04/15 10:30:38;;;;;;;2.40;2.30;;;7.90;99.90;;;;;;5046685;28;20659;-75
2023/04/15 10:33:04;;;;;;;2.50;2.35;;;8.10;99.90;;;;;;5047894;28;20192;-75
2023/04/15 10:35:32;;;;;;;2.10;2.00;;;8.00;99.90;;;;;;5048041;28;20211;-74
2023/04/15 10:37:58;;;;;;;2.30;2.20;;;8.10;99.90;;;;;;5054269;28;20187;-74
2023/04/15 10:40:31;;;;;;;1.98;1.88;;;8.00;99.90;;;;;;5043119;28;20666;-75
2023/04/15 10:42:59;;;;;;;2.20;1.83;;;8.20;99.90;;;;;;5057746;28;20183;-75
2023/04/15 10:45:26;;;;;;;2.28;2.17;;;8.40;99.90;;;;;;5038544;28;20291;-74
2023/04/15 10:47:56;;;;;;;3.00;2.70;;;9.00;99.90;;;;;;5052849;28;20231;-76
2023/04/15 10:50:21;;;;;;;2.00;1.90;;;10.00;99.90;;;;;;5049244;28;20213;-76
2023/04/15 10:52:51;;;;;;;1.63;1.60;;;11.50;99.90;;;;;;5050021;28;20483;-76
2023/04/15 10:55:26;;;;;;;2.35;2.15;;;12.40;99.90;;;;;;5045035;28;20250;-75
2023/04/15 10:57:59;;;;;;;1.13;1.13;;;12.90;99.90;;;;;;5041977;28;20175;-76
2023/04/15 11:00:30;;;;;;;1.25;1.25;;;13.30;99.90;;;;;;5052115;28;20195;-74
2023/04/15 11:03:06;;;;;;;1.58;1.48;;;13.20;99.90;;;;;;5052277;28;20646;-78
2023/04/15 11:05:41;;;;;;;1.40;1.30;;;13.00;99.90;;;;;;5046916;28;20237;-75
2023/04/15 11:08:11;;;;;;;1.30;1.30;;;13.00;99.90;;;;;;5034458;28;20206;-75
2023/04/15 11:10:36;;;;;;;1.02;1.02;;;13.10;99.90;;;;;;5050961;28;20176;-75
2023/04/15 11:13:04;;;;;;;0.98;0.98;;;11.90;99.90;;;;;;5038285;28;20184;-74
2023/04/15 11:15:37;;;;;;;2.15;2.05;;;11.90;99.90;;;;;;5051653;28;20231;-74
2023/04/15 11:18:16;;;;;;;0.70;0.70;;;11.40;99.90;;;;;;5052722;28;20176;-75
2023/04/15 11:20:44;;;;;;;0.90;0.90;;;11.00;99.90;;;;;;5048057;28;20187;-75
2023/04/15 11:23:10;;;;;;;0.80;0.80;;;10.90;99.90;;;;;;5040254;28;20523;-75
2023/04/15 11:25:36;;;;;;;1.10;1.00;;;11.60;99.90;;;;;;5030450;28;20195;-75
2023/04/15 11:28:03;;;;;;;0.65;0.65;;;12.00;99.90;;;;;;5046737;28;20237;-76
2023/04/15 11:30:32;;;;;;;0.90;0.90;;;11.90;99.90;;;;;;5051309;28;20214;-75
2023/04/15 11:33:00;;;;;;;1.05;0.90;;;12.20;99.90;;;;;;5046330;28;20184;-75
2023/04/15 11:35:26;;;;;;;1.33;1.33;;;12.40;99.90;;;;;;5047050;28;20210;-75
2023/04/15 11:37:52;;;;;;;1.65;1.17;;;11.90;99.90;;;;;;5048805;28;20173;-74
2023/04/15 11:40:29;;;;;;;1.23;1.23;;;11.10;99.90;;;;;;5049569;28;20181;-75
2023/04/15 11:43:21;;;;;;;1.23;1.23;;;10.40;99.90;;;;;;5043319;28;20222;-75
2023/04/15 11:45:55;;;;;;;0.80;0.80;;;10.20;99.90;;;;;;5031879;28;20231;-74
2023/04/15 11:48:26;;;;;;;1.20;1.20;;;10.40;99.90;;;;;;5030834;28;20717;-74
2023/04/15 11:51:00;;;;;;;0.85;0.85;;;10.20;99.90;;;;;;5044525;28;20187;-74
2023/04/15 11:53:38;;;;;;;0.75;0.75;;;10.00;99.90;;;;;;5046608;28;20218;-76
2023/04/15 11:56:05;;;;;;;0.60;0.60;;;9.80;99.90;;;;;;5045876;28;20825;-76
2023/04/15 11:58:30;;;;;;;0.50;0.50;;;10.00;99.90;;;;;;5058284;28;20670;-75
2023/04/15 12:00:58;;;;;;;1.00;1.00;;;10.50;99.90;;;;;;5051893;28;20198;-75
2023/04/15 12:03:42;;;;;;;1.20;1.20;;;10.90;99.90;;;;;;5048928;28;20192;-76
2023/04/15 12:06:18;;;;;;;0.73;0.73;;;11.20;99.90;;;;;;5030654;28;20682;-75
2023/04/15 12:09:02;;;;;;;0.75;0.75;;;11.80;99.90;;;;;;5046724;28;20191;-75
2023/04/15 12:11:34;;;;;;;0.75;0.75;;;11.30;99.90;;;;;;5047290;28;20230;-75
2023/04/15 12:14:37;;;;;;;0.70;0.70;;;10.90;99.90;;;;;;5056996;28;20596;-75
2023/04/15 12:17:04;;;;;;;0.70;0.70;;;10.40;99.90;;;;;;5028991;28;20187;-75
2023/04/15 12:19:38;;;;;;;1.00;1.00;;;10.70;99.90;;;;;;5045835;28;20172;-75
2023/04/15 12:22:07;;;;;;;0.85;0.85;;;10.60;99.90;;;;;;5048420;28;20198;-75
2023/04/15 12:24:35;;;;;;;0.88;0.88;;;10.90;99.90;;;;;;5034861;28;20203;-76
2023/04/15 12:27:02;;;;;;;1.00;1.00;;;10.70;99.90;;;;;;5046776;28;20180;-75
2023/04/15 12:29:29;;;;;;;0.88;0.88;;;10.70;99.90;;;;;;5044478;28;20651;-75
2023/04/15 12:31:57;;;;;;;1.60;1.27;;;10.70;99.90;;;;;;5044676;28;20558;-75
2023/04/15 12:34:32;;;;;;;0.90;0.90;;;10.20;99.90;;;;;;5047534;28;20366;-75
2023/04/15 12:37:00;;;;;;;1.00;1.00;;;9.80;99.90;;;;;;5046224;28;20184;-75
2023/04/15 12:39:28;;;;;;;0.70;0.70;;;9.80;99.90;;;;;;5042010;28;20187;-75
2023/04/15 12:41:54;;;;;;;1.75;0.90;;;9.60;99.90;;;;;;5050921;28;20187;-75
2023/04/15 12:44:22;;;;;;;1.02;1.02;;;9.40;99.90;;;;;;5046968;28;20214;-75
2023/04/15 12:46:49;;;;;;;0.93;0.93;;;9.20;99.90;;;;;;5049982;28;20229;-76
2023/04/15 12:49:15;;;;;;;1.00;1.00;;;8.80;99.90;;;;;;5046454;28;20176;-75
2023/04/15 12:51:41;;;;;;;1.13;1.13;;;8.70;99.90;;;;;;5044800;28;20171;-75